Terminal Aerodrome Forecast
Issued by NWS Wilmington, OH

Current Version | Previous Version | Graphics & Text | Print | Product List | Glossary On
Versions: 1 2 3 4 5 6 7 8 9 10 11 12 13 14 15 16 17 18 19 20
669
FTUS41 KILN 270534
TAFILN
TAF
KILN 270534Z 2706/2806 20004KT P6SM SCT150 BKN250
      TEMPO 2709/2712 4SM BR
     FM271500 20007KT P6SM VCSH BKN040
     FM271700 20009KT P6SM BKN040
     FM280000 17003KT P6SM BKN250=

USA.gov is the U.S. government's official web portal to all federal, state and local government web resources and services.